Time;durP1;ratioP1;P1;durP2;ratioP2;P2;SDS_P1;SDS_P2;PMS_P1;PMS_P2;Temp;Humidity;BMP_temperature;BMP_pressure;BME280_temperature;BME280_humidity;BME280_pressure;Samples;Min_cycle;Max_cycle;Signal;HPM_P1;HPM_P2
2023/02/05 00:01:34;;;;;;;8.30;1.50;;;4.70;87.40;;;;;;5037719;28;20202;-66
2023/02/05 00:04:02;;;;;;;5.93;2.03;;;4.70;87.40;;;;;;5040258;28;20236;-66
2023/02/05 00:06:29;;;;;;;11.07;1.80;;;4.70;87.50;;;;;;5034800;28;20583;-67
2023/02/05 00:08:57;;;;;;;7.77;1.63;;;4.70;87.60;;;;;;5036187;28;20286;-66
2023/02/05 00:11:24;;;;;;;16.30;2.47;;;4.70;87.80;;;;;;5036403;28;20281;-66
2023/02/05 00:13:52;;;;;;;10.03;2.07;;;4.70;87.80;;;;;;5036241;28;20256;-66
2023/02/05 00:16:21;;;;;;;11.87;1.67;;;4.70;88.10;;;;;;5036533;28;20209;-66
2023/02/05 00:18:48;;;;;;;8.70;2.30;;;4.70;88.20;;;;;;5037248;28;20298;-66
2023/02/05 00:21:15;;;;;;;9.63;2.13;;;4.70;88.30;;;;;;5032134;28;20267;-66
2023/02/05 00:23:42;;;;;;;8.93;2.07;;;4.70;88.50;;;;;;5034274;28;20582;-66
2023/02/05 00:26:12;;;;;;;10.60;2.47;;;4.70;88.60;;;;;;5040566;28;20213;-66
2023/02/05 00:28:40;;;;;;;10.83;2.77;;;4.80;88.90;;;;;;5037774;28;20222;-66
2023/02/05 00:31:13;;;;;;;8.87;3.40;;;4.80;89.10;;;;;;5037760;28;20340;-66
2023/02/05 00:33:41;;;;;;;11.63;2.20;;;4.90;89.30;;;;;;5033087;28;20252;-66
2023/02/05 00:36:10;;;;;;;7.57;1.80;;;4.90;89.10;;;;;;5038628;28;20555;-66
2023/02/05 00:38:40;;;;;;;7.73;2.00;;;5.00;89.10;;;;;;5031554;28;20322;-66
2023/02/05 00:41:08;;;;;;;13.13;2.20;;;5.10;88.90;;;;;;5036632;28;20226;-66
2023/02/05 00:43:37;;;;;;;9.80;2.13;;;5.10;88.70;;;;;;5040215;28;20224;-66
2023/02/05 00:46:04;;;;;;;7.70;1.97;;;5.20;88.60;;;;;;5033194;28;20249;-66
2023/02/05 00:48:31;;;;;;;4.23;2.30;;;5.30;88.50;;;;;;5034914;28;20214;-66
2023/02/05 00:50:58;;;;;;;10.53;2.10;;;5.30;88.30;;;;;;5033148;28;20207;-66
2023/02/05 00:53:26;;;;;;;4.70;2.00;;;5.40;88.10;;;;;;5039959;28;20207;-66
2023/02/05 00:55:53;;;;;;;9.13;2.40;;;5.40;87.80;;;;;;5036429;28;20244;-66
2023/02/05 00:58:21;;;;;;;10.87;1.97;;;5.50;87.60;;;;;;5041224;28;20291;-66
2023/02/05 01:00:51;;;;;;;6.53;1.93;;;5.50;87.40;;;;;;5036193;28;20224;-66
2023/02/05 01:03:19;;;;;;;6.43;1.60;;;5.60;87.20;;;;;;5033600;28;20264;-67
2023/02/05 01:05:46;;;;;;;6.30;2.13;;;5.60;86.90;;;;;;5036562;28;20235;-66
2023/02/05 01:08:14;;;;;;;5.10;1.23;;;5.60;86.70;;;;;;5039826;28;20276;-66
2023/02/05 01:10:46;;;;;;;6.60;1.67;;;5.70;86.50;;;;;;5038177;28;20202;-66
2023/02/05 01:13:14;;;;;;;7.97;2.20;;;5.70;86.40;;;;;;5033970;28;20206;-66
2023/02/05 01:15:44;;;;;;;10.27;1.67;;;5.70;86.20;;;;;;5031818;28;20284;-65
2023/02/05 01:18:11;;;;;;;5.53;2.03;;;5.70;86.00;;;;;;5036602;28;20563;-66
2023/02/05 01:20:40;;;;;;;5.80;1.73;;;5.70;86.00;;;;;;5036027;28;20204;-66
2023/02/05 01:23:07;;;;;;;11.57;3.47;;;5.70;86.10;;;;;;5038952;28;20198;-66
2023/02/05 01:25:35;;;;;;;13.70;2.03;;;5.60;86.20;;;;;;5041678;28;20235;-66
2023/02/05 01:28:03;;;;;;;10.37;1.93;;;5.60;86.30;;;;;;5036089;28;20206;-66
2023/02/05 01:30:30;;;;;;;4.77;1.60;;;5.60;86.30;;;;;;5038324;28;20217;-66
2023/02/05 01:32:57;;;;;;;7.83;2.50;;;5.60;86.50;;;;;;5033252;28;20286;-66
2023/02/05 01:35:24;;;;;;;9.00;1.90;;;5.50;86.60;;;;;;5032120;28;20265;-66
2023/02/05 01:37:51;;;;;;;6.30;2.07;;;5.50;86.70;;;;;;5040463;28;20219;-66
2023/02/05 01:40:19;;;;;;;5.10;1.93;;;5.50;86.80;;;;;;5021039;28;20583;-66
2023/02/05 01:42:46;;;;;;;6.70;2.10;;;5.40;86.80;;;;;;5030878;28;20202;-66
2023/02/05 01:45:22;;;;;;;11.60;2.47;;;5.30;86.90;;;;;;5033648;28;20624;-66
2023/02/05 01:47:54;;;;;;;9.73;1.90;;;5.30;87.20;;;;;;5039765;28;20190;-66
2023/02/05 01:50:30;;;;;;;12.83;2.10;;;5.20;87.40;;;;;;5034466;28;20294;-66
2023/02/05 01:53:04;;;;;;;7.70;1.77;;;5.20;87.60;;;;;;5032706;28;20207;-66
2023/02/05 01:55:34;;;;;;;7.73;1.73;;;5.10;87.90;;;;;;5027698;28;20194;-66
2023/02/05 01:58:02;;;;;;;6.20;2.07;;;5.10;88.10;;;;;;5038211;28;20670;-66
2023/02/05 02:00:29;;;;;;;6.83;2.10;;;5.10;88.30;;;;;;5037461;28;20214;-66
2023/02/05 02:02:58;;;;;;;5.20;1.70;;;5.10;88.30;;;;;;5030616;28;20257;-66
2023/02/05 02:05:25;;;;;;;4.37;1.80;;;5.00;88.50;;;;;;5035318;28;20244;-66
2023/02/05 02:07:52;;;;;;;7.43;2.27;;;5.10;88.70;;;;;;5041392;28;20541;-66
2023/02/05 02:10:19;;;;;;;10.07;2.20;;;5.10;88.80;;;;;;5029770;28;20201;-66
2023/02/05 02:12:48;;;;;;;8.53;2.50;;;5.00;88.70;;;;;;5040122;28;20199;-66
2023/02/05 02:15:20;;;;;;;13.30;1.90;;;5.10;88.80;;;;;;5032045;28;20268;-67
2023/02/05 02:17:51;;;;;;;8.43;2.10;;;5.10;88.70;;;;;;5031655;28;20682;-66
2023/02/05 02:20:25;;;;;;;13.43;1.83;;;5.10;88.40;;;;;;5035796;28;20276;-68
2023/02/05 02:22:54;;;;;;;7.37;1.63;;;5.20;88.20;;;;;;5038427;28;20265;-66
2023/02/05 02:25:47;;;;;;;13.20;2.07;;;5.20;87.90;;;;;;5033785;28;20245;-66
2023/02/05 02:28:34;;;;;;;11.10;2.00;;;5.20;87.50;;;;;;5033237;28;20206;-66
2023/02/05 02:31:23;;;;;;;9.33;1.77;;;5.30;87.20;;;;;;5040416;28;20213;-67
2023/02/05 02:34:17;;;;;;;9.90;1.50;;;5.20;86.90;;;;;;5026129;28;20673;-66
2023/02/05 02:36:52;;;;;;;8.27;1.50;;;5.20;86.70;;;;;;5029447;28;20220;-66
2023/02/05 02:39:43;;;;;;;10.83;1.80;;;5.20;86.30;;;;;;5031202;28;20245;-66
2023/02/05 02:42:34;;;;;;;7.90;1.70;;;5.30;86.30;;;;;;5030682;28;20203;-66
2023/02/05 02:45:06;;;;;;;6.57;1.50;;;5.20;86.00;;;;;;5021047;28;20219;-66
2023/02/05 02:47:39;;;;;;;5.43;1.53;;;5.20;85.80;;;;;;5037906;28;20256;-66
2023/02/05 02:50:16;;;;;;;4.83;1.40;;;5.20;85.70;;;;;;5032993;28;20528;-66
2023/02/05 02:52:46;;;;;;;8.67;1.60;;;5.10;85.60;;;;;;5040372;28;20210;-66
2023/02/05 02:55:15;;;;;;;10.33;1.83;;;5.10;85.70;;;;;;5041860;28;20673;-65
2023/02/05 02:57:47;;;;;;;5.87;1.57;;;5.10;85.70;;;;;;5025585;28;20560;-66
2023/02/05 03:00:18;;;;;;;5.87;1.27;;;5.00;85.70;;;;;;5026287;28;20651;-66
2023/02/05 03:02:49;;;;;;;7.93;1.70;;;5.00;85.80;;;;;;5054829;28;20196;-66
2023/02/05 03:05:21;;;;;;;7.73;1.83;;;5.00;86.50;;;;;;5041549;28;20242;-66
2023/02/05 03:07:54;;;;;;;11.47;2.00;;;4.90;85.80;;;;;;5037319;28;20636;-66
2023/02/05 03:10:30;;;;;;;11.43;1.60;;;4.90;85.80;;;;;;5030217;28;20207;-66
2023/02/05 03:12:57;;;;;;;5.07;1.60;;;4.90;86.40;;;;;;5037158;28;20194;-65
2023/02/05 03:15:25;;;;;;;6.23;1.73;;;4.80;85.70;;;;;;5036609;28;20211;-65
2023/02/05 03:17:54;;;;;;;8.20;1.83;;;4.80;85.90;;;;;;5037892;28;20228;-66
2023/02/05 03:20:25;;;;;;;3.30;1.30;;;4.70;86.00;;;;;;5028241;28;20210;-66
2023/02/05 03:22:55;;;;;;;4.53;1.60;;;4.70;86.20;;;;;;5036125;28;20202;-66
2023/02/05 03:25:26;;;;;;;8.40;1.70;;;4.60;86.40;;;;;;5034714;28;20638;-66
2023/02/05 03:27:56;;;;;;;9.30;1.67;;;4.60;86.50;;;;;;5030337;28;20200;-66
2023/02/05 03:30:32;;;;;;;5.87;2.13;;;4.60;86.70;;;;;;5042198;28;20214;-66
2023/02/05 03:33:08;;;;;;;6.33;1.60;;;4.60;86.80;;;;;;5033517;28;20759;-65
2023/02/05 03:35:58;;;;;;;2.50;1.27;;;4.60;86.80;;;;;;5041920;28;20685;-66
2023/02/05 03:38:58;;;;;;;11.83;1.70;;;4.70;86.70;;;;;;5033712;28;20565;-66
2023/02/05 03:41:54;;;;;;;8.33;1.80;;;4.70;86.30;;;;;;5037228;28;20216;-65
2023/02/05 03:44:35;;;;;;;6.33;1.50;;;4.70;85.90;;;;;;5009331;28;20228;-66
2023/02/05 03:47:24;;;;;;;5.70;1.53;;;4.70;85.40;;;;;;5051857;28;20641;-66
2023/02/05 03:50:08;;;;;;;9.43;1.73;;;4.80;85.20;;;;;;5032141;28;20487;-66
2023/02/05 03:52:44;;;;;;;16.13;2.03;;;4.80;85.10;;;;;;5021201;28;20209;-66
2023/02/05 03:55:29;;;;;;;2.67;1.27;;;4.80;84.90;;;;;;5042791;28;20232;-67
2023/02/05 03:58:06;;;;;;;6.07;1.90;;;4.80;84.70;;;;;;5039286;28;20209;-66
2023/02/05 04:00:34;;;;;;;5.07;1.43;;;4.80;84.60;;;;;;5038014;28;20206;-66
2023/02/05 04:03:03;;;;;;;5.47;1.50;;;4.80;84.40;;;;;;5036906;28;20214;-66
2023/02/05 04:05:32;;;;;;;8.77;1.33;;;4.80;84.30;;;;;;5040265;28;20238;-66
2023/02/05 04:08:01;;;;;;;10.50;1.83;;;4.70;83.80;;;;;;5034013;28;20200;-66
2023/02/05 04:10:34;;;;;;;4.03;1.77;;;4.70;83.50;;;;;;5033296;28;20204;-65
2023/02/05 04:13:02;;;;;;;3.77;1.17;;;4.80;83.00;;;;;;5038036;28;20704;-66
2023/02/05 04:15:32;;;;;;;9.87;1.57;;;4.80;82.60;;;;;;5031896;28;20206;-66
2023/02/05 04:18:03;;;;;;;4.87;1.80;;;4.80;82.30;;;;;;5017749;28;20292;-66
2023/02/05 04:20:30;;;;;;;3.80;1.60;;;4.80;82.10;;;;;;5032317;28;20569;-66
2023/02/05 04:22:58;;;;;;;5.10;1.50;;;4.80;82.00;;;;;;5033111;28;20211;-66
2023/02/05 04:25:28;;;;;;;3.53;1.27;;;4.80;81.90;;;;;;5025271;28;20195;-66
2023/02/05 04:27:59;;;;;;;2.33;1.20;;;4.70;81.90;;;;;;5038399;28;20230;-66
2023/02/05 04:30:27;;;;;;;1.97;1.10;;;4.70;81.70;;;;;;5036107;28;20215;-66
2023/02/05 04:32:54;;;;;;;8.00;1.77;;;4.60;81.50;;;;;;5033765;28;20575;-66
2023/02/05 04:35:21;;;;;;;5.77;1.37;;;4.60;81.20;;;;;;5034981;28;20254;-66
2023/02/05 04:37:48;;;;;;;6.20;1.33;;;4.60;81.00;;;;;;5036536;28;20218;-66
2023/02/05 04:40:16;;;;;;;7.77;1.87;;;4.60;80.70;;;;;;5037106;28;20218;-66
2023/02/05 04:42:44;;;;;;;5.83;1.40;;;4.60;80.60;;;;;;5033779;28;20229;-66
2023/02/05 04:45:11;;;;;;;5.80;1.60;;;4.60;80.00;;;;;;5031003;28;20213;-65
2023/02/05 04:47:38;;;;;;;8.27;1.37;;;4.70;79.40;;;;;;5037009;28;20234;-66
2023/02/05 04:50:05;;;;;;;9.60;1.73;;;4.70;78.80;;;;;;5036085;28;20240;-66
2023/02/05 04:52:32;;;;;;;9.20;1.80;;;4.70;78.20;;;;;;5034863;28;20264;-65
2023/02/05 04:54:59;;;;;;;11.30;1.60;;;4.70;77.50;;;;;;5044447;28;20209;-66
2023/02/05 04:57:26;;;;;;;3.20;1.10;;;4.80;77.30;;;;;;5035967;28;20203;-66
2023/02/05 04:59:53;;;;;;;7.57;1.53;;;4.80;77.00;;;;;;5035421;28;20226;-66
2023/02/05 05:02:21;;;;;;;3.23;1.43;;;4.80;76.90;;;;;;5030323;28;20197;-66
2023/02/05 05:04:49;;;;;;;5.47;1.73;;;4.80;76.30;;;;;;5036613;28;20580;-66
2023/02/05 05:07:15;;;;;;;1.37;1.07;;;4.80;76.30;;;;;;5030146;28;20198;-66
2023/02/05 05:09:42;;;;;;;8.47;1.57;;;4.80;75.70;;;;;;5034090;28;20533;-66
2023/02/05 05:12:09;;;;;;;4.63;1.73;;;4.80;76.00;;;;;;5033062;28;20203;-66
2023/02/05 05:14:37;;;;;;;4.07;2.00;;;4.80;75.90;;;;;;5028855;28;20591;-66
2023/02/05 05:17:04;;;;;;;3.17;1.30;;;4.70;75.90;;;;;;5031149;28;20654;-66
2023/02/05 05:19:31;;;;;;;3.67;1.60;;;4.70;75.60;;;;;;5038725;28;20219;-65
2023/02/05 05:21:58;;;;;;;4.17;0.93;;;4.70;75.50;;;;;;5040243;28;20256;-66
2023/02/05 05:24:25;;;;;;;1.80;1.30;;;4.80;75.30;;;;;;5038454;28;20195;-66
2023/02/05 05:26:52;;;;;;;2.80;1.50;;;4.80;75.20;;;;;;5031278;28;20638;-65
2023/02/05 05:29:19;;;;;;;6.20;1.07;;;4.70;75.10;;;;;;5038194;28;20285;-66
2023/02/05 05:31:46;;;;;;;4.00;1.30;;;4.70;74.80;;;;;;5036598;28;20270;-66
2023/02/05 05:34:13;;;;;;;5.73;1.30;;;4.70;74.80;;;;;;5033796;28;20289;-65
2023/02/05 05:36:42;;;;;;;3.30;1.23;;;4.70;74.80;;;;;;5038172;28;20214;-66
2023/02/05 05:44:40;;;;;;;4.10;1.27;;;4.60;74.80;;;;;;5034147;28;20501;-66
2023/02/05 05:47:07;;;;;;;2.93;1.30;;;4.60;74.40;;;;;;5038161;28;20202;-65
2023/02/05 05:49:34;;;;;;;3.63;1.30;;;4.60;74.30;;;;;;5038539;28;20285;-67
2023/02/05 05:52:01;;;;;;;6.00;2.00;;;4.60;74.20;;;;;;5034458;28;20297;-66
2023/02/05 05:54:28;;;;;;;1.10;1.00;;;4.60;74.30;;;;;;5037070;28;20283;-65
2023/02/05 05:56:55;;;;;;;2.63;1.53;;;4.60;74.60;;;;;;5034011;28;20301;-68
2023/02/05 05:59:22;;;;;;;2.07;1.30;;;4.60;74.40;;;;;;5039860;28;20282;-66
2023/02/05 06:01:49;;;;;;;2.07;1.17;;;4.50;74.50;;;;;;5030244;28;20229;-65
2023/02/05 06:04:16;;;;;;;2.93;1.13;;;4.50;74.70;;;;;;5035159;28;20203;-66
2023/02/05 06:06:43;;;;;;;1.50;1.20;;;4.50;74.90;;;;;;5034140;28;20245;-66
2023/02/05 06:09:11;;;;;;;2.43;1.20;;;4.40;75.00;;;;;;5027207;28;20213;-66
2023/02/05 06:11:38;;;;;;;3.90;1.37;;;4.40;75.30;;;;;;5033427;28;20635;-66
2023/02/05 06:14:05;;;;;;;3.83;1.00;;;4.30;75.30;;;;;;5035955;28;20210;-66
2023/02/05 06:16:33;;;;;;;2.43;1.17;;;4.30;75.30;;;;;;5040331;28;20657;-65
2023/02/05 06:18:59;;;;;;;3.73;1.30;;;4.30;75.10;;;;;;5035803;28;20224;-66
2023/02/05 06:21:26;;;;;;;4.97;1.60;;;4.30;74.80;;;;;;5037774;28;20210;-65
2023/02/05 06:23:53;;;;;;;2.90;1.40;;;4.30;74.80;;;;;;5034217;28;20203;-65
2023/02/05 06:26:20;;;;;;;5.67;1.70;;;4.30;74.70;;;;;;5035259;28;20214;-66
2023/02/05 06:28:47;;;;;;;4.07;1.60;;;4.30;74.70;;;;;;5034273;28;20199;-66
2023/02/05 06:31:16;;;;;;;2.60;1.40;;;4.30;74.70;;;;;;5039381;28;20222;-65
2023/02/05 06:33:43;;;;;;;11.47;1.67;;;4.30;74.70;;;;;;5035397;28;20240;-66
2023/02/05 06:36:10;;;;;;;4.73;1.43;;;4.20;74.60;;;;;;5027624;28;20589;-66
2023/02/05 06:38:37;;;;;;;4.37;1.27;;;4.20;74.60;;;;;;5033346;28;20211;-66
2023/02/05 06:41:04;;;;;;;6.13;1.60;;;4.20;74.40;;;;;;5041184;28;20222;-66
2023/02/05 06:43:31;;;;;;;1.80;1.43;;;4.20;74.50;;;;;;5041737;28;20275;-65
2023/02/05 06:45:58;;;;;;;3.00;1.33;;;4.20;74.60;;;;;;5039350;28;20565;-66
2023/02/05 06:48:25;;;;;;;3.13;1.10;;;4.20;74.70;;;;;;5040747;28;20235;-66
2023/02/05 06:50:52;;;;;;;2.27;1.30;;;4.20;74.60;;;;;;5037376;28;20270;-67
2023/02/05 06:53:19;;;;;;;0.83;0.63;;;4.30;74.40;;;;;;5038450;28;20581;-66
2023/02/05 06:55:46;;;;;;;4.03;1.40;;;4.30;74.20;;;;;;5035069;28;20209;-66
2023/02/05 06:58:13;;;;;;;3.97;1.23;;;4.30;74.10;;;;;;5034088;28;20305;-66
2023/02/05 07:00:40;;;;;;;4.17;1.20;;;4.40;74.00;;;;;;5036682;28;20220;-67
2023/02/05 07:03:07;;;;;;;4.70;1.60;;;4.50;73.70;;;;;;5031706;28;20203;-66
2023/02/05 07:05:34;;;;;;;4.43;1.67;;;4.70;73.40;;;;;;5036287;28;20241;-66
2023/02/05 07:08:03;;;;;;;2.80;1.37;;;4.90;72.60;;;;;;5041475;28;20210;-66
2023/02/05 07:10:30;;;;;;;8.10;1.57;;;5.10;71.80;;;;;;5034077;28;20216;-66
2023/02/05 07:12:57;;;;;;;4.57;1.43;;;5.20;71.20;;;;;;5040781;28;20538;-66
2023/02/05 07:15:24;;;;;;;3.27;1.40;;;5.30;70.80;;;;;;5042580;28;20233;-66
2023/02/05 07:17:51;;;;;;;4.20;1.60;;;5.30;70.90;;;;;;5040061;28;20556;-66
2023/02/05 07:20:18;;;;;;;5.00;2.17;;;5.40;71.20;;;;;;5037043;28;20283;-66
2023/02/05 07:22:46;;;;;;;6.47;1.40;;;5.50;71.20;;;;;;5038163;28;20213;-66
2023/02/05 07:25:13;;;;;;;5.30;2.07;;;5.80;70.90;;;;;;5031050;28;20574;-66
2023/02/05 07:27:40;;;;;;;5.37;1.33;;;6.10;70.00;;;;;;5034487;28;20208;-66
2023/02/05 07:30:08;;;;;;;5.83;1.80;;;6.40;68.70;;;;;;5034666;28;20207;-66
2023/02/05 07:32:35;;;;;;;2.13;1.27;;;6.80;68.00;;;;;;5040937;28;20206;-66
2023/02/05 07:35:02;;;;;;;10.60;2.43;;;7.10;67.30;;;;;;5041543;28;20650;-66
2023/02/05 07:37:29;;;;;;;3.80;1.70;;;7.40;66.30;;;;;;5041829;28;20215;-66
2023/02/05 07:39:56;;;;;;;3.80;1.67;;;7.70;65.20;;;;;;5033026;28;20230;-66
2023/02/05 07:42:23;;;;;;;9.57;1.97;;;7.90;64.60;;;;;;5035912;28;20202;-67
2023/02/05 07:44:56;;;;;;;4.63;1.50;;;7.90;64.20;;;;;;5037065;28;20599;-66
2023/02/05 07:47:22;;;;;;;3.10;1.30;;;7.70;65.00;;;;;;5037644;28;20215;-66
2023/02/05 07:49:50;;;;;;;4.50;1.70;;;7.40;65.10;;;;;;5035690;28;20701;-66
2023/02/05 07:52:17;;;;;;;4.03;1.80;;;7.20;65.70;;;;;;5043195;28;20230;-67
2023/02/05 07:54:44;;;;;;;6.43;2.83;;;7.10;66.70;;;;;;5038023;28;20208;-66
2023/02/05 07:57:11;;;;;;;18.87;8.20;;;7.20;67.10;;;;;;5030492;28;20636;-66
2023/02/05 07:59:38;;;;;;;62.27;26.40;;;7.20;67.30;;;;;;5031852;28;20250;-66
2023/02/05 08:02:05;;;;;;;44.13;17.43;;;7.30;67.30;;;;;;5032426;28;20535;-66
2023/02/05 08:04:32;;;;;;;12.83;5.43;;;7.30;67.10;;;;;;5036553;28;20640;-68
2023/02/05 08:06:59;;;;;;;6.67;2.13;;;7.30;67.00;;;;;;5038943;28;20195;-66
2023/02/05 08:09:26;;;;;;;3.10;1.23;;;7.40;67.60;;;;;;5037677;28;20681;-66
2023/02/05 08:11:53;;;;;;;6.93;2.00;;;7.40;67.90;;;;;;5036912;28;20230;-66
2023/02/05 08:14:20;;;;;;;6.43;1.83;;;7.40;67.70;;;;;;5038326;28;20196;-66
2023/02/05 08:16:47;;;;;;;4.30;1.70;;;7.50;68.40;;;;;;5038554;28;20210;-67
2023/02/05 08:19:16;;;;;;;10.40;1.60;;;7.50;69.00;;;;;;5030144;28;20195;-66
2023/02/05 08:21:44;;;;;;;4.37;1.37;;;7.60;68.80;;;;;;5032155;28;20217;-66
2023/02/05 08:24:11;;;;;;;3.87;1.40;;;7.70;68.50;;;;;;5035586;28;20199;-66
2023/02/05 08:26:39;;;;;;;7.93;2.17;;;7.80;68.40;;;;;;5034600;28;20203;-66
2023/02/05 08:29:07;;;;;;;5.57;3.10;;;7.90;68.00;;;;;;5040747;28;20196;-66
2023/02/05 08:31:34;;;;;;;8.47;2.53;;;7.90;67.40;;;;;;5033451;28;20207;-66
2023/02/05 08:34:02;;;;;;;7.60;2.60;;;8.00;67.40;;;;;;5038515;28;20209;-66
2023/02/05 08:36:30;;;;;;;9.03;3.20;;;8.10;67.40;;;;;;5038435;28;20263;-66
2023/02/05 08:38:57;;;;;;;4.63;1.97;;;8.10;67.10;;;;;;5037902;28;20237;-66
2023/02/05 08:41:24;;;;;;;3.80;1.70;;;8.10;66.70;;;;;;5034443;28;21851;-67
2023/02/05 08:43:51;;;;;;;4.67;1.93;;;8.20;66.20;;;;;;5034729;28;20282;-67
2023/02/05 08:46:23;;;;;;;5.43;1.83;;;8.20;66.30;;;;;;5038782;28;20249;-67
2023/02/05 08:48:50;;;;;;;5.50;2.20;;;8.20;67.20;;;;;;5040894;28;20207;-66
2023/02/05 08:51:18;;;;;;;6.63;1.97;;;8.20;66.80;;;;;;5031064;28;20196;-66
2023/02/05 08:53:46;;;;;;;2.53;1.60;;;8.10;66.70;;;;;;5041745;28;20200;-66
2023/02/05 08:56:14;;;;;;;6.37;2.10;;;8.00;66.90;;;;;;5035458;28;20203;-66
2023/02/05 08:58:41;;;;;;;3.50;1.60;;;8.00;67.30;;;;;;5037905;28;20248;-66
2023/02/05 09:01:12;;;;;;;4.60;1.90;;;8.00;67.50;;;;;;5031970;28;20691;-66
2023/02/05 09:03:39;;;;;;;3.40;1.80;;;8.10;67.30;;;;;;5038005;28;20218;-66
2023/02/05 09:06:09;;;;;;;4.83;1.67;;;8.10;67.00;;;;;;5032372;28;20240;-66
2023/02/05 09:08:36;;;;;;;4.73;1.67;;;8.20;67.00;;;;;;5034632;28;20196;-67
2023/02/05 09:11:04;;;;;;;6.17;1.60;;;8.20;67.00;;;;;;5039291;28;20238;-66
2023/02/05 09:13:31;;;;;;;4.40;1.60;;;8.30;66.80;;;;;;5030407;28;20199;-68
2023/02/05 09:15:58;;;;;;;3.13;1.70;;;8.30;66.00;;;;;;5032710;28;20264;-66
2023/02/05 09:18:25;;;;;;;3.40;1.30;;;8.40;66.00;;;;;;5037609;28;20584;-66
2023/02/05 09:20:53;;;;;;;3.73;1.70;;;8.40;65.70;;;;;;5033715;28;20211;-66
2023/02/05 09:23:20;;;;;;;7.80;1.83;;;8.50;66.00;;;;;;5039587;28;20200;-67
2023/02/05 09:25:47;;;;;;;3.77;2.07;;;8.60;65.60;;;;;;5035896;28;20201;-66
2023/02/05 09:28:15;;;;;;;4.83;2.67;;;8.80;65.50;;;;;;5035167;28;20201;-66
2023/02/05 09:30:44;;;;;;;4.33;2.20;;;8.90;65.70;;;;;;5035459;28;20228;-66
2023/02/05 09:33:12;;;;;;;5.73;1.97;;;9.10;65.60;;;;;;5038682;28;20305;-66
2023/02/05 09:35:39;;;;;;;3.17;1.70;;;9.20;63.70;;;;;;5036399;28;20632;-66
2023/02/05 09:38:06;;;;;;;3.17;1.40;;;9.30;63.30;;;;;;5030759;28;20204;-66
2023/02/05 09:41:15;;;;;;;4.87;1.47;;;9.30;62.30;;;;;;5036177;28;20248;-66
2023/02/05 09:43:53;;;;;;;4.33;1.93;;;9.40;61.50;;;;;;5032564;28;20201;-66
2023/02/05 09:46:45;;;;;;;3.70;2.00;;;9.40;61.70;;;;;;5034850;28;20196;-67
2023/02/05 09:49:20;;;;;;;3.73;1.37;;;9.50;62.00;;;;;;5041179;28;20533;-66
2023/02/05 09:51:51;;;;;;;5.73;1.60;;;9.60;60.70;;;;;;5039202;28;20542;-66
2023/02/05 09:54:38;;;;;;;5.53;1.57;;;9.70;60.70;;;;;;5039643;28;20268;-66
2023/02/05 09:57:12;;;;;;;2.83;1.40;;;9.70;60.50;;;;;;5037914;28;20201;-66
2023/02/05 09:59:43;;;;;;;5.80;1.80;;;9.80;59.90;;;;;;5039584;28;20263;-66
2023/02/05 10:02:34;;;;;;;5.33;1.67;;;9.80;60.40;;;;;;5035492;28;20205;-66
2023/02/05 10:05:06;;;;;;;3.63;1.20;;;9.90;60.00;;;;;;5040369;28;20236;-69
2023/02/05 10:07:36;;;;;;;2.97;1.23;;;9.90;58.00;;;;;;5037320;28;20205;-66
2023/02/05 10:10:25;;;;;;;2.90;1.10;;;9.90;58.40;;;;;;5034908;28;20199;-66
2023/02/05 10:13:31;;;;;;;2.70;1.30;;;9.90;58.90;;;;;;5035657;28;20207;-67
2023/02/05 10:16:22;;;;;;;5.60;1.30;;;9.90;58.40;;;;;;5027931;28;20578;-67
2023/02/05 10:18:57;;;;;;;1.63;1.00;;;9.90;59.80;;;;;;5041372;28;20217;-66
2023/02/05 10:21:40;;;;;;;4.97;1.60;;;9.90;59.50;;;;;;5037201;28;20668;-67
2023/02/05 10:24:26;;;;;;;5.40;1.30;;;10.00;58.70;;;;;;5036927;28;20232;-66
2023/02/05 10:27:06;;;;;;;3.50;1.57;;;10.00;58.90;;;;;;5034592;28;20616;-68
2023/02/05 10:30:10;;;;;;;1.50;1.00;;;10.10;59.50;;;;;;5037548;28;20201;-66
2023/02/05 10:32:43;;;;;;;4.57;1.57;;;10.20;58.40;;;;;;5033994;28;20221;-67
2023/02/05 10:35:24;;;;;;;7.30;1.53;;;10.20;59.00;;;;;;5040904;28;20201;-66
2023/02/05 10:37:54;;;;;;;5.50;1.67;;;10.20;58.10;;;;;;5036774;28;20204;-66
2023/02/05 10:40:41;;;;;;;4.40;1.60;;;10.30;59.40;;;;;;5032502;28;20718;-67
2023/02/05 10:43:28;;;;;;;2.80;1.20;;;10.40;58.50;;;;;;5040224;28;20597;-67
2023/02/05 10:45:57;;;;;;;8.03;2.13;;;10.40;56.90;;;;;;5040908;28;20202;-68
2023/02/05 10:48:41;;;;;;;4.70;1.17;;;10.30;57.70;;;;;;5041339;28;20233;-67
2023/02/05 10:51:10;;;;;;;4.40;1.57;;;10.30;57.30;;;;;;5039443;28;20201;-67
2023/02/05 10:53:37;;;;;;;3.67;1.50;;;10.30;58.00;;;;;;5037335;28;20211;-66
2023/02/05 10:56:04;;;;;;;2.90;0.93;;;10.40;57.40;;;;;;5039282;28;20628;-67
2023/02/05 10:58:49;;;;;;;2.87;1.40;;;10.40;57.10;;;;;;5036702;28;20206;-66
2023/02/05 11:01:20;;;;;;;2.90;1.10;;;10.50;58.30;;;;;;5034225;28;20675;-67
2023/02/05 11:03:55;;;;;;;2.83;1.73;;;10.50;58.50;;;;;;5036097;28;20685;-66
2023/02/05 11:06:25;;;;;;;2.83;1.83;;;10.60;58.00;;;;;;5036877;28;20241;-67
2023/02/05 11:08:52;;;;;;;4.80;2.17;;;10.70;58.50;;;;;;5037496;28;20229;-67
2023/02/05 11:11:28;;;;;;;2.07;1.30;;;10.80;57.80;;;;;;5039147;28;20200;-66
2023/02/05 11:14:06;;;;;;;4.23;1.37;;;10.80;56.70;;;;;;5041955;28;20197;-66
2023/02/05 11:16:40;;;;;;;5.77;1.73;;;10.70;57.20;;;;;;5036340;28;20230;-67
2023/02/05 11:19:19;;;;;;;4.83;1.70;;;10.70;56.70;;;;;;5035976;28;20224;-66
2023/02/05 11:22:01;;;;;;;6.07;1.40;;;10.80;56.70;;;;;;5044652;28;20215;-66
2023/02/05 11:24:32;;;;;;;3.80;1.43;;;10.80;56.90;;;;;;5030418;28;20629;-66
2023/02/05 11:27:25;;;;;;;4.97;1.60;;;10.90;57.30;;;;;;5035987;28;20197;-66
2023/02/05 11:29:58;;;;;;;6.80;1.87;;;11.00;57.20;;;;;;5043526;28;20625;-66
2023/02/05 11:32:36;;;;;;;4.47;1.67;;;11.00;57.70;;;;;;5033730;28;20196;-66
2023/02/05 11:35:18;;;;;;;4.13;1.43;;;11.20;57.40;;;;;;5032419;28;20290;-66
2023/02/05 11:37:49;;;;;;;9.87;2.20;;;11.30;56.30;;;;;;5042942;28;20229;-66
2023/02/05 11:40:23;;;;;;;4.87;1.40;;;11.30;56.50;;;;;;5037312;28;20213;-67
2023/02/05 11:43:02;;;;;;;6.63;1.70;;;11.30;56.60;;;;;;5039213;28;20218;-66
2023/02/05 11:45:31;;;;;;;5.43;1.83;;;11.30;56.60;;;;;;5041259;28;20212;-66
2023/02/05 11:48:02;;;;;;;5.43;0.97;;;11.20;55.80;;;;;;5034350;28;20207;-67
2023/02/05 11:50:31;;;;;;;4.23;1.63;;;11.10;56.90;;;;;;5030263;28;20233;-66
2023/02/05 11:53:15;;;;;;;4.03;1.47;;;11.20;57.60;;;;;;5039357;28;20199;-67
2023/02/05 11:55:43;;;;;;;3.77;1.50;;;11.20;56.40;;;;;;5033746;28;20201;-66
2023/02/05 11:58:23;;;;;;;3.67;1.37;;;11.10;55.70;;;;;;5032190;28;20203;-66
2023/02/05 12:01:03;;;;;;;4.93;1.40;;;11.00;55.80;;;;;;5024165;28;20245;-66
2023/02/05 12:03:32;;;;;;;4.47;1.20;;;11.00;56.50;;;;;;5039015;28;20224;-66
2023/02/05 12:06:04;;;;;;;1.33;1.00;;;10.90;56.60;;;;;;5039690;28;20237;-67
2023/02/05 12:08:42;;;;;;;2.63;1.37;;;10.90;56.40;;;;;;5034223;28;20257;-66
2023/02/05 12:11:20;;;;;;;2.47;1.10;;;10.80;57.00;;;;;;5038455;28;20210;-67
2023/02/05 12:14:12;;;;;;;8.80;1.47;;;10.70;56.90;;;;;;5039975;28;20266;-66
2023/02/05 12:16:45;;;;;;;3.47;1.40;;;10.70;57.20;;;;;;5036406;28;20221;-66
2023/02/05 12:19:27;;;;;;;3.83;1.27;;;10.60;56.90;;;;;;5032764;28;20645;-66
2023/02/05 12:22:09;;;;;;;8.10;2.00;;;10.50;56.60;;;;;;5035178;28;20223;-66
2023/02/05 12:24:54;;;;;;;3.47;1.37;;;10.40;56.80;;;;;;5035591;28;20194;-67
2023/02/05 12:27:33;;;;;;;5.60;1.30;;;10.40;57.40;;;;;;5029641;28;20269;-68
2023/02/05 12:30:25;;;;;;;4.50;1.20;;;10.30;56.80;;;;;;5037195;28;20203;-66
2023/02/05 12:33:19;;;;;;;5.37;1.80;;;10.20;56.30;;;;;;5033664;28;20295;-69
2023/02/05 12:36:10;;;;;;;1.57;1.10;;;10.20;56.90;;;;;;5038053;28;20204;-66
2023/02/05 12:38:43;;;;;;;9.70;1.97;;;10.20;57.50;;;;;;5035284;28;20207;-66
2023/02/05 12:41:09;;;;;;;5.47;1.23;;;10.20;57.00;;;;;;5034383;28;20340;-66
2023/02/05 12:43:39;;;;;;;3.97;1.70;;;10.20;57.30;;;;;;5034440;28;20624;-67
2023/02/05 12:46:37;;;;;;;4.60;1.33;;;10.10;58.00;;;;;;5038901;28;20193;-67
2023/02/05 12:49:12;;;;;;;6.90;1.30;;;10.10;57.80;;;;;;5033662;28;20590;-66
2023/02/05 12:52:09;;;;;;;3.40;1.20;;;10.10;56.40;;;;;;5033433;28;20206;-66
2023/02/05 12:54:55;;;;;;;7.73;1.20;;;10.00;57.20;;;;;;5036632;28;20228;-66
2023/02/05 12:57:48;;;;;;;5.53;1.37;;;10.00;57.30;;;;;;5029340;28;20661;-68
2023/02/05 13:00:21;;;;;;;2.53;1.43;;;9.90;58.00;;;;;;5033031;28;20223;-66
2023/02/05 13:03:07;;;;;;;3.53;1.10;;;9.90;58.10;;;;;;5037808;28;20220;-66
2023/02/05 13:05:47;;;;;;;3.87;1.23;;;9.90;58.20;;;;;;5033720;28;20237;-66
2023/02/05 13:08:28;;;;;;;3.93;1.80;;;9.90;58.90;;;;;;5034940;28;20210;-66
2023/02/05 13:11:04;;;;;;;2.37;1.10;;;9.90;59.20;;;;;;5035865;28;20214;-67
2023/02/05 13:13:55;;;;;;;6.77;1.77;;;9.90;59.20;;;;;;5030708;28;20223;-66
2023/02/05 13:16:29;;;;;;;4.93;1.53;;;10.00;58.90;;;;;;5036379;28;20268;-66
2023/02/05 13:19:08;;;;;;;2.03;1.23;;;10.00;58.50;;;;;;5032712;28;20271;-67
2023/02/05 13:30:19;;;;;;;3.27;1.40;;;10.10;58.70;;;;;;5036863;28;20251;-66
2023/02/05 13:32:50;;;;;;;3.57;1.30;;;10.10;59.20;;;;;;5027850;28;20253;-66